This is the latest recevied weather packets stored in our database for station/object KJ6HT. If no packets are shown the sender has not sent any weather packets the latest 1 day(s).
| Time | Temp. | Humidity | Pressure | Rain* | Wind** | Luminosity | Snow |
|---|---|---|---|---|---|---|---|
| 1778022004 | 19.44° C | 47% | 1012.5 hPa | 0 mm | 1.79 m/s, 221° | - | - |
| 1778021103 | 19.44° C | 47% | 1012.7 hPa | 0 mm | 1.79 m/s, 240° | - | - |
| 1778020202 | 20° C | 48% | 1012.7 hPa | 0 mm | 1.34 m/s, 256° | - | - |
| 1778019302 | 19.44° C | 47% | 1012.8 hPa | 0 mm | 2.24 m/s, 205° | - | - |
| 1778018460 | 19.44° C | 49% | 1012.8 hPa | 0 mm | 1.34 m/s, 176° | - | - |
| 1778017564 | 20° C | 48% | 1013 hPa | 0 mm | 2.68 m/s, 288° | - | - |
| 1778016657 | 19.44° C | 49% | 1013.1 hPa | 0 mm | 0.89 m/s, 304° | - | - |
| 1778015785 | 20.56° C | 49% | 1013.2 hPa | 0 mm | 1.79 m/s, 228° | - | - |
| 1778014856 | 20.56° C | 48% | 1013.3 hPa | 0 mm | 2.24 m/s, 293° | - | - |
| 1778013952 | 20° C | 49% | 1013.2 hPa | 0 mm | 1.79 m/s, 229° | - | - |
| 1778013073 | 20° C | 49% | 1013.2 hPa | 0 mm | 2.24 m/s, 290° | - | - |
| 1778012151 | 20° C | 48% | 1013.3 hPa | 0 mm | 1.34 m/s, 226° | - | - |
| 1778011247 | 19.44° C | 49% | 1013.5 hPa | 0 mm | 1.34 m/s, 217° | - | - |
| 1778010345 | 20° C | 48% | 1013.5 hPa | 0 mm | 0 m/s | - | - |
| 1778009443 | 19.44° C | 48% | 1013.7 hPa | 0 mm | 1.79 m/s, 158° | - | - |
| 1778008546 | 19.44° C | 47% | 1013.8 hPa | 0 mm | 1.34 m/s, 351° | - | - |
| 1778007643 | 19.44° C | 49% | 1013.8 hPa | 0 mm | 0.89 m/s, 267° | - | - |
| 1778006746 | 18.89° C | 52% | 1014 hPa | 0 mm | 2.24 m/s, 257° | - | - |
| 1778005839 | 18.33° C | 56% | 1014 hPa | 0 mm | 1.79 m/s, 263° | - | - |
| 1778004931 | 17.78° C | 58% | 1014.1 hPa | 0 mm | 0.89 m/s, 266° | - | - |
| 1778004029 | 17.78° C | 60% | 1014 hPa | 0 mm | 1.34 m/s, 239° | - | - |
| 1778003126 | 17.22° C | 62% | 1013.9 hPa | 0 mm | 0.89 m/s, 226° | - | - |
| 1778002224 | 16.67° C | 65% | 1013.7 hPa | 0 mm | 0.45 m/s, 284° | - | - |
| 1778001322 | 16.67° C | 66% | 1013.7 hPa | 0 mm | 1.34 m/s, 308° | - | - |
| 1778000423 | 16.11° C | 68% | 1013.6 hPa | 0 mm | 0.89 m/s, 255° | - | - |
* Rain latest hour (hover to see other rain measurements)
** Current wind speed in m/s (hover to see current wind gust speed)